< < Back
Terminal Aerodrome Forecast


Current Version              Previous Versions:   1  2  3  4  5  6  7  8  9  

Terminal Aerodrome Forecast

198
FTUS42 KGSP 291135
TAFGSP
TAF
KGSP 291135Z 2912/3012 04003KT P6SM BKN030
      TEMPO 2912/2914 6SM BR SCT030
     FM291400 04003KT P6SM BKN040 BKN250
     FM291800 07003KT P6SM VCSH BKN060
     FM292100 08004KT P6SM BKN060 BKN160
     FM300700 00000KT P6SM SCT030=



Latest METAR

062
SAUS70 KWBC 292200 RRA
MTRGSP
METAR KGSP 292153Z 14007KT 10SM CLR 28/17 A3016 RMK AO2 SLP202
T02830167


USA.gov is the U.S. government's official web portal to all federal, state and local government web resources and services.